jeudi 21 septembre 2017

Données METAR

Un METAR (METeorological Aerodrome Report) est un rapport d'observation (et non de prévision) météorologique pour l'aviation. Ce code international a été développé par les membres de l'Organisation de l'aviation civile internationale et est approuvé par l'Organisation météorologique mondiale. Les données de base sont communes à tous les pays mais certaines sections du code sont sujettes à des variantes locales.

Les messages METAR sont mis à jour régulièrement, souvent entre 30 minutes à 60 minutes pendant les heures d'ouverture du terrain, selon son équipement et l'éventualité d'un changement important du temps observé.

Exemple de message d'un METAR: METAR LFQN 201630Z 18005KT 4000 -SHRA SCT030 BKN050 18/12 Q1014 NOSIG=

Ci dessous vous trouverez les données décodées des METAR à proximité de Fontenay le Comte (dans un rayon de 100km) ainsi que le message codé en dernière ligne de chaque tableau.Ces METAR mettent à jour leurs données toutes les 30mn.

 

Prévisions à court terme

Image du ciel

Webcam Fontenay le Comte

 

 

Les conditions météo actuelles

Vigilance

    POUR LA VENDEE: